ASL44Q LOWW-LYBE
Flight info
| Callsign | ASL44Q |
|---|---|
| Flight time | 1h 9m |
| Altitude | 19000 |
| Route | ARSIN DCT NALOX DCT BABIT DCT RIGMU |
| Aircraft | AT76/M-SDFGIRY/S |
Departure
| Time | 2026-04-22 18:23 |
|---|---|
| Airport | Vienna International Airport (LOWW) |
Arrival
| Time | 2026-04-22 19:32 |
|---|---|
| Airport | Belgrade Nikola Tesla Airport (LYBE) |
| Time | Latitude | Longitude | Altitude | Speed | Heading |
|---|---|---|---|---|---|
| 2026-04-22 18:06 | 48.11670 | 16.56349 | 605 ft | 0 kts | 206° |
| 2026-04-22 18:19 | 48.11657 | 16.56340 | 616 ft | 5 kts | 206° |
| 2026-04-22 18:19 | 48.11608 | 16.56342 | 605 ft | 10 kts | 140° |
| 2026-04-22 18:20 | 48.11545 | 16.56378 | 605 ft | 11 kts | 191° |
| 2026-04-22 18:20 | 48.11481 | 16.56438 | 609 ft | 10 kts | 116° |
| 2026-04-22 18:20 | 48.11445 | 16.56550 | 605 ft | 13 kts | 115° |
| 2026-04-22 18:20 | 48.11412 | 16.56651 | 611 ft | 8 kts | 116° |
| 2026-04-22 18:21 | 48.11383 | 16.56742 | 617 ft | 10 kts | 116° |
| 2026-04-22 18:21 | 48.11355 | 16.56811 | 611 ft | 3 kts | 165° |
| 2026-04-22 18:21 | 48.11337 | 16.56793 | 605 ft | 4 kts | 219° |
| 2026-04-22 18:21 | 48.11322 | 16.56773 | 613 ft | 4 kts | 224° |
| 2026-04-22 18:22 | 48.11297 | 16.56665 | 605 ft | 19 kts | 265° |
| 2026-04-22 18:22 | 48.11284 | 16.56458 | 617 ft | 18 kts | 264° |
| 2026-04-22 18:22 | 48.11355 | 16.56180 | 605 ft | 57 kts | 296° |
| 2026-04-22 18:22 | 48.11613 | 16.55392 | 610 ft | 111 kts | 296° |
| 2026-04-22 18:23 | 48.11972 | 16.54293 | 1006 ft | 115 kts | 298° |
| 2026-04-22 18:23 | 48.12190 | 16.53135 | 1578 ft | 124 kts | 270° |
| 2026-04-22 18:23 | 48.11679 | 16.52003 | 1835 ft | 154 kts | 209° |
| 2026-04-22 18:24 | 48.09566 | 16.50555 | 2419 ft | 183 kts | 209° |
| 2026-04-22 18:24 | 48.08389 | 16.49728 | 2785 ft | 193 kts | 207° |
| 2026-04-22 18:24 | 48.05818 | 16.49002 | 3691 ft | 196 kts | 152° |
| 2026-04-22 18:25 | 48.04749 | 16.50250 | 4018 ft | 197 kts | 134° |
| 2026-04-22 18:25 | 48.03708 | 16.51531 | 4528 ft | 196 kts | 137° |
| 2026-04-22 18:25 | 48.02651 | 16.52805 | 5018 ft | 197 kts | 137° |
| 2026-04-22 18:26 | 48.00494 | 16.55445 | 5880 ft | 201 kts | 137° |
| 2026-04-22 18:26 | 47.99405 | 16.56765 | 6342 ft | 202 kts | 137° |
| 2026-04-22 18:26 | 47.98311 | 16.58084 | 6793 ft | 203 kts | 137° |
| 2026-04-22 18:26 | 47.97210 | 16.59410 | 7220 ft | 203 kts | 137° |
| 2026-04-22 18:27 | 47.96110 | 16.60734 | 7654 ft | 204 kts | 137° |
| 2026-04-22 18:27 | 47.95003 | 16.62064 | 8087 ft | 204 kts | 137° |
| 2026-04-22 18:27 | 47.93893 | 16.63397 | 8500 ft | 205 kts | 137° |
| 2026-04-22 18:27 | 47.92779 | 16.64739 | 8902 ft | 206 kts | 137° |
| 2026-04-22 18:28 | 47.91676 | 16.66062 | 9295 ft | 207 kts | 137° |
| 2026-04-22 18:28 | 47.90549 | 16.67406 | 9701 ft | 208 kts | 137° |
| 2026-04-22 18:28 | 47.89425 | 16.68763 | 10117 ft | 209 kts | 137° |
| 2026-04-22 18:28 | 47.88283 | 16.70113 | 10465 ft | 209 kts | 137° |
| 2026-04-22 18:29 | 47.87138 | 16.71460 | 10811 ft | 210 kts | 137° |
| 2026-04-22 18:29 | 47.85990 | 16.72817 | 11163 ft | 211 kts | 137° |
| 2026-04-22 18:29 | 47.84840 | 16.74187 | 11511 ft | 212 kts | 136° |
| 2026-04-22 18:29 | 47.83691 | 16.75561 | 11858 ft | 212 kts | 136° |
| 2026-04-22 18:30 | 47.82538 | 16.76943 | 12198 ft | 213 kts | 136° |
| 2026-04-22 18:30 | 47.80232 | 16.79702 | 12858 ft | 214 kts | 136° |
| 2026-04-22 18:30 | 47.79062 | 16.81100 | 13183 ft | 215 kts | 136° |
| 2026-04-22 18:31 | 47.77891 | 16.82493 | 13519 ft | 216 kts | 136° |
| 2026-04-22 18:31 | 47.76713 | 16.83897 | 13850 ft | 217 kts | 136° |
| 2026-04-22 18:31 | 47.75533 | 16.85300 | 14148 ft | 217 kts | 135° |
| 2026-04-22 18:31 | 47.74361 | 16.86695 | 14422 ft | 218 kts | 135° |
| 2026-04-22 18:32 | 47.73171 | 16.88110 | 14702 ft | 219 kts | 135° |
| 2026-04-22 18:32 | 47.71979 | 16.89528 | 14980 ft | 220 kts | 135° |
| 2026-04-22 18:32 | 47.70781 | 16.90954 | 15256 ft | 221 kts | 135° |
| 2026-04-22 18:32 | 47.69575 | 16.92388 | 15519 ft | 221 kts | 135° |
| 2026-04-22 18:33 | 47.68370 | 16.93818 | 15781 ft | 222 kts | 135° |
| 2026-04-22 18:33 | 47.67173 | 16.95237 | 16032 ft | 223 kts | 135° |
| 2026-04-22 18:33 | 47.65955 | 16.96678 | 16293 ft | 224 kts | 135° |
| 2026-04-22 18:33 | 47.64737 | 16.98121 | 16549 ft | 225 kts | 135° |
| 2026-04-22 18:34 | 47.63511 | 16.99572 | 16789 ft | 225 kts | 135° |
| 2026-04-22 18:34 | 47.62281 | 17.01027 | 17042 ft | 226 kts | 135° |
| 2026-04-22 18:34 | 47.61063 | 17.02467 | 17293 ft | 227 kts | 135° |
| 2026-04-22 18:34 | 47.59822 | 17.03934 | 17535 ft | 228 kts | 135° |
| 2026-04-22 18:35 | 47.58582 | 17.05398 | 17781 ft | 228 kts | 135° |
| 2026-04-22 18:35 | 47.57331 | 17.06871 | 18033 ft | 229 kts | 135° |
| 2026-04-22 18:35 | 47.56098 | 17.08328 | 18246 ft | 230 kts | 135° |
| 2026-04-22 18:35 | 47.54842 | 17.09807 | 18463 ft | 231 kts | 135° |
| 2026-04-22 18:36 | 47.53583 | 17.11291 | 18640 ft | 231 kts | 135° |
| 2026-04-22 18:36 | 47.52321 | 17.12776 | 18825 ft | 232 kts | 135° |
| 2026-04-22 18:36 | 47.51075 | 17.14240 | 18997 ft | 232 kts | 135° |
| 2026-04-22 18:36 | 47.49791 | 17.15754 | 19102 ft | 238 kts | 135° |
| 2026-04-22 18:37 | 47.48473 | 17.17307 | 19142 ft | 245 kts | 135° |
| 2026-04-22 18:37 | 47.47120 | 17.18899 | 19164 ft | 252 kts | 135° |
| 2026-04-22 18:37 | 47.46201 | 17.19975 | 19171 ft | 256 kts | 135° |
| 2026-04-22 18:37 | 47.44320 | 17.22176 | 19180 ft | 263 kts | 135° |
| 2026-04-22 18:38 | 47.42871 | 17.23871 | 19176 ft | 267 kts | 136° |
| 2026-04-22 18:38 | 47.41397 | 17.25594 | 19182 ft | 271 kts | 136° |
| 2026-04-22 18:38 | 47.39909 | 17.27331 | 19184 ft | 273 kts | 136° |
| 2026-04-22 18:39 | 47.36918 | 17.30824 | 19180 ft | 277 kts | 136° |
| 2026-04-22 18:39 | 47.35400 | 17.32595 | 19185 ft | 279 kts | 136° |
| 2026-04-22 18:39 | 47.33869 | 17.34377 | 19186 ft | 280 kts | 136° |
| 2026-04-22 18:39 | 47.32331 | 17.36171 | 19183 ft | 281 kts | 136° |
| 2026-04-22 18:40 | 47.30793 | 17.37961 | 19185 ft | 282 kts | 136° |
| 2026-04-22 18:40 | 47.29251 | 17.39756 | 19184 ft | 282 kts | 136° |
| 2026-04-22 18:40 | 47.27726 | 17.41528 | 19188 ft | 283 kts | 136° |
| 2026-04-22 18:40 | 47.26178 | 17.43326 | 19184 ft | 283 kts | 136° |
| 2026-04-22 18:41 | 47.24625 | 17.45130 | 19185 ft | 283 kts | 136° |
| 2026-04-22 18:41 | 47.23069 | 17.46934 | 19184 ft | 284 kts | 136° |
| 2026-04-22 18:41 | 47.21534 | 17.48712 | 19180 ft | 284 kts | 136° |
| 2026-04-22 18:41 | 47.19977 | 17.50513 | 19180 ft | 284 kts | 136° |
| 2026-04-22 18:42 | 47.18417 | 17.52321 | 19183 ft | 284 kts | 136° |
| 2026-04-22 18:42 | 47.16861 | 17.54120 | 19180 ft | 285 kts | 136° |
| 2026-04-22 18:42 | 47.15301 | 17.55922 | 19181 ft | 285 kts | 136° |
| 2026-04-22 18:42 | 47.13760 | 17.57703 | 19180 ft | 285 kts | 136° |
| 2026-04-22 18:43 | 47.12198 | 17.59505 | 19173 ft | 285 kts | 136° |
| 2026-04-22 18:43 | 47.10633 | 17.61312 | 19175 ft | 285 kts | 136° |
| 2026-04-22 18:43 | 47.09069 | 17.63110 | 19175 ft | 285 kts | 136° |
| 2026-04-22 18:43 | 47.07521 | 17.64891 | 19175 ft | 285 kts | 136° |
| 2026-04-22 18:44 | 47.05951 | 17.66699 | 19172 ft | 286 kts | 136° |
| 2026-04-22 18:44 | 47.04403 | 17.68478 | 19166 ft | 286 kts | 136° |
| 2026-04-22 18:44 | 47.02835 | 17.70278 | 19163 ft | 285 kts | 136° |
| 2026-04-22 18:44 | 47.01268 | 17.72074 | 19167 ft | 285 kts | 136° |
| 2026-04-22 18:45 | 46.99707 | 17.73869 | 19167 ft | 285 kts | 136° |
| 2026-04-22 18:45 | 46.98143 | 17.75665 | 19167 ft | 285 kts | 136° |
| 2026-04-22 18:45 | 46.96579 | 17.77452 | 19167 ft | 285 kts | 136° |
| 2026-04-22 18:45 | 46.95010 | 17.79245 | 19163 ft | 285 kts | 136° |
| 2026-04-22 18:46 | 46.93458 | 17.81017 | 19169 ft | 286 kts | 137° |
| 2026-04-22 18:46 | 46.91892 | 17.82804 | 19163 ft | 285 kts | 136° |
| 2026-04-22 18:46 | 46.90324 | 17.84596 | 19162 ft | 285 kts | 137° |
| 2026-04-22 18:46 | 46.88757 | 17.86385 | 19158 ft | 285 kts | 137° |
| 2026-04-22 18:47 | 46.87189 | 17.88172 | 19158 ft | 285 kts | 137° |
| 2026-04-22 18:47 | 46.85623 | 17.89956 | 19160 ft | 285 kts | 137° |
| 2026-04-22 18:47 | 46.84081 | 17.91724 | 19164 ft | 285 kts | 136° |
| 2026-04-22 18:47 | 46.82527 | 17.93518 | 19158 ft | 285 kts | 137° |
| 2026-04-22 18:48 | 46.80960 | 17.95309 | 19161 ft | 285 kts | 137° |
| 2026-04-22 18:48 | 46.79391 | 17.97095 | 19161 ft | 285 kts | 137° |
| 2026-04-22 18:48 | 46.77823 | 17.98875 | 19158 ft | 285 kts | 137° |
| 2026-04-22 18:48 | 46.76258 | 18.00649 | 19159 ft | 285 kts | 137° |
| 2026-04-22 18:49 | 46.74712 | 18.02398 | 19161 ft | 285 kts | 137° |
| 2026-04-22 18:49 | 46.73139 | 18.04171 | 19155 ft | 285 kts | 137° |
| 2026-04-22 18:49 | 46.71567 | 18.05951 | 19160 ft | 286 kts | 137° |
| 2026-04-22 18:49 | 46.69996 | 18.07726 | 19155 ft | 286 kts | 137° |
| 2026-04-22 18:50 | 46.68422 | 18.09506 | 19156 ft | 286 kts | 137° |
| 2026-04-22 18:50 | 46.66865 | 18.11265 | 19156 ft | 286 kts | 137° |
| 2026-04-22 18:50 | 46.65292 | 18.13035 | 19157 ft | 286 kts | 137° |
| 2026-04-22 18:50 | 46.63714 | 18.14814 | 19155 ft | 286 kts | 137° |
| 2026-04-22 18:51 | 46.62134 | 18.16593 | 19153 ft | 286 kts | 137° |
| 2026-04-22 18:51 | 46.60555 | 18.18367 | 19154 ft | 286 kts | 137° |
| 2026-04-22 18:51 | 46.58982 | 18.20139 | 19156 ft | 286 kts | 137° |
| 2026-04-22 18:51 | 46.57418 | 18.21895 | 19158 ft | 286 kts | 137° |
| 2026-04-22 18:52 | 46.55843 | 18.23665 | 19155 ft | 286 kts | 137° |
| 2026-04-22 18:52 | 46.54261 | 18.25436 | 19157 ft | 287 kts | 137° |
| 2026-04-22 18:52 | 46.52696 | 18.27191 | 19156 ft | 287 kts | 138° |
| 2026-04-22 18:52 | 46.51113 | 18.28965 | 19156 ft | 287 kts | 138° |
| 2026-04-22 18:53 | 46.49525 | 18.30741 | 19153 ft | 287 kts | 138° |
| 2026-04-22 18:53 | 46.47943 | 18.32510 | 19153 ft | 287 kts | 138° |
| 2026-04-22 18:53 | 46.46354 | 18.34285 | 19154 ft | 287 kts | 138° |
| 2026-04-22 18:53 | 46.44785 | 18.36039 | 19156 ft | 287 kts | 138° |
| 2026-04-22 18:54 | 46.43196 | 18.37807 | 19157 ft | 288 kts | 138° |
| 2026-04-22 18:54 | 46.41607 | 18.39581 | 19154 ft | 288 kts | 138° |
| 2026-04-22 18:54 | 46.40034 | 18.41330 | 19156 ft | 288 kts | 138° |
| 2026-04-22 18:54 | 46.38446 | 18.43098 | 19151 ft | 288 kts | 138° |
| 2026-04-22 18:55 | 46.36856 | 18.44870 | 19150 ft | 288 kts | 138° |
| 2026-04-22 18:55 | 46.35266 | 18.46638 | 19152 ft | 288 kts | 138° |
| 2026-04-22 18:55 | 46.33673 | 18.48406 | 19152 ft | 288 kts | 138° |
| 2026-04-22 18:55 | 46.32079 | 18.50175 | 19151 ft | 288 kts | 138° |
| 2026-04-22 18:56 | 46.30509 | 18.51920 | 19152 ft | 288 kts | 138° |
| 2026-04-22 18:56 | 46.28916 | 18.53683 | 19154 ft | 288 kts | 138° |
| 2026-04-22 18:56 | 46.27324 | 18.55447 | 19150 ft | 288 kts | 139° |
| 2026-04-22 18:56 | 46.25731 | 18.57210 | 19161 ft | 288 kts | 138° |
| 2026-04-22 18:57 | 46.24137 | 18.58972 | 19159 ft | 288 kts | 139° |
| 2026-04-22 18:57 | 46.22563 | 18.60712 | 19155 ft | 288 kts | 139° |
| 2026-04-22 18:57 | 46.20961 | 18.62478 | 19153 ft | 288 kts | 139° |
| 2026-04-22 18:57 | 46.19383 | 18.64222 | 19150 ft | 288 kts | 139° |
| 2026-04-22 18:58 | 46.17786 | 18.65979 | 19159 ft | 288 kts | 139° |
| 2026-04-22 18:58 | 46.16194 | 18.67735 | 19153 ft | 288 kts | 139° |
| 2026-04-22 18:58 | 46.15135 | 18.68900 | 19157 ft | 288 kts | 139° |
| 2026-04-22 18:58 | 46.13537 | 18.70656 | 19158 ft | 287 kts | 139° |
| 2026-04-22 18:59 | 46.11947 | 18.72404 | 19151 ft | 287 kts | 139° |
| 2026-04-22 18:59 | 46.10353 | 18.74156 | 19160 ft | 288 kts | 139° |
| 2026-04-22 18:59 | 46.08242 | 18.76474 | 19156 ft | 288 kts | 139° |
| 2026-04-22 18:59 | 46.07165 | 18.77656 | 19154 ft | 288 kts | 139° |
| 2026-04-22 19:00 | 46.05587 | 18.79385 | 19150 ft | 288 kts | 139° |
| 2026-04-22 19:00 | 46.03986 | 18.81135 | 19151 ft | 288 kts | 139° |
| 2026-04-22 19:00 | 46.02410 | 18.82865 | 19143 ft | 287 kts | 139° |
| 2026-04-22 19:00 | 46.00811 | 18.84613 | 19148 ft | 287 kts | 139° |
| 2026-04-22 19:01 | 45.99217 | 18.86358 | 19154 ft | 287 kts | 139° |
| 2026-04-22 19:01 | 45.97623 | 18.88105 | 19158 ft | 287 kts | 139° |
| 2026-04-22 19:01 | 45.96031 | 18.89843 | 19157 ft | 287 kts | 139° |
| 2026-04-22 19:01 | 45.94457 | 18.91560 | 19153 ft | 288 kts | 139° |
| 2026-04-22 19:02 | 45.92857 | 18.93311 | 19148 ft | 287 kts | 140° |
| 2026-04-22 19:02 | 45.91193 | 18.94906 | 19160 ft | 288 kts | 145° |
| 2026-04-22 19:02 | 45.89463 | 18.96390 | 19164 ft | 289 kts | 146° |
| 2026-04-22 19:02 | 45.87734 | 18.97870 | 19165 ft | 289 kts | 146° |
| 2026-04-22 19:03 | 45.86028 | 18.99387 | 19147 ft | 288 kts | 144° |
| 2026-04-22 19:03 | 45.84347 | 19.00912 | 19152 ft | 288 kts | 144° |
| 2026-04-22 19:03 | 45.82651 | 19.02455 | 19149 ft | 289 kts | 144° |
| 2026-04-22 19:03 | 45.80948 | 19.04006 | 19153 ft | 289 kts | 144° |
| 2026-04-22 19:04 | 45.79252 | 19.05551 | 19156 ft | 289 kts | 144° |
| 2026-04-22 19:04 | 45.77552 | 19.07101 | 19157 ft | 289 kts | 144° |
| 2026-04-22 19:04 | 45.75859 | 19.08642 | 19155 ft | 289 kts | 144° |
| 2026-04-22 19:04 | 45.74184 | 19.10180 | 19162 ft | 289 kts | 144° |
| 2026-04-22 19:05 | 45.72497 | 19.11751 | 19158 ft | 289 kts | 144° |
| 2026-04-22 19:05 | 45.70797 | 19.13318 | 19156 ft | 290 kts | 145° |
| 2026-04-22 19:05 | 45.69092 | 19.14865 | 19151 ft | 289 kts | 145° |
| 2026-04-22 19:05 | 45.67392 | 19.16403 | 19157 ft | 289 kts | 145° |
| 2026-04-22 19:06 | 45.65708 | 19.17928 | 19157 ft | 289 kts | 145° |
| 2026-04-22 19:06 | 45.64002 | 19.19470 | 19154 ft | 289 kts | 145° |
| 2026-04-22 19:06 | 45.62300 | 19.21005 | 19158 ft | 289 kts | 145° |
| 2026-04-22 19:07 | 45.58910 | 19.24061 | 19155 ft | 289 kts | 145° |
| 2026-04-22 19:07 | 45.57211 | 19.25592 | 19156 ft | 289 kts | 145° |
| 2026-04-22 19:07 | 45.55509 | 19.27127 | 19159 ft | 289 kts | 145° |
| 2026-04-22 19:07 | 45.53822 | 19.28643 | 19163 ft | 289 kts | 145° |
| 2026-04-22 19:08 | 45.52111 | 19.30183 | 19158 ft | 290 kts | 145° |
| 2026-04-22 19:08 | 45.50398 | 19.31719 | 19155 ft | 289 kts | 145° |
| 2026-04-22 19:08 | 45.48690 | 19.33252 | 19157 ft | 289 kts | 145° |
| 2026-04-22 19:08 | 45.47005 | 19.34763 | 19156 ft | 289 kts | 145° |
| 2026-04-22 19:09 | 45.45294 | 19.36297 | 19158 ft | 289 kts | 145° |
| 2026-04-22 19:09 | 45.43589 | 19.37832 | 19157 ft | 289 kts | 145° |
| 2026-04-22 19:09 | 45.41898 | 19.39346 | 19159 ft | 289 kts | 145° |
| 2026-04-22 19:09 | 45.40195 | 19.40870 | 19157 ft | 289 kts | 146° |
| 2026-04-22 19:10 | 45.38482 | 19.42392 | 19158 ft | 289 kts | 146° |
| 2026-04-22 19:10 | 45.36794 | 19.43899 | 19157 ft | 289 kts | 146° |
| 2026-04-22 19:10 | 45.35092 | 19.45421 | 19160 ft | 289 kts | 146° |
| 2026-04-22 19:10 | 45.33386 | 19.46943 | 19162 ft | 289 kts | 145° |
| 2026-04-22 19:11 | 45.31680 | 19.48466 | 19155 ft | 289 kts | 146° |
| 2026-04-22 19:11 | 45.29973 | 19.49982 | 19163 ft | 289 kts | 146° |
| 2026-04-22 19:11 | 45.28291 | 19.51481 | 19161 ft | 289 kts | 146° |
| 2026-04-22 19:11 | 45.26587 | 19.52999 | 19162 ft | 289 kts | 145° |
| 2026-04-22 19:12 | 45.24878 | 19.54516 | 19162 ft | 287 kts | 147° |
| 2026-04-22 19:12 | 45.23017 | 19.55517 | 19163 ft | 288 kts | 165° |
| 2026-04-22 19:12 | 45.21049 | 19.56106 | 19157 ft | 289 kts | 167° |
| 2026-04-22 19:12 | 45.19070 | 19.56665 | 19166 ft | 289 kts | 167° |
| 2026-04-22 19:13 | 45.17128 | 19.57284 | 19166 ft | 290 kts | 165° |
| 2026-04-22 19:13 | 45.15153 | 19.58001 | 19069 ft | 295 kts | 163° |
| 2026-04-22 19:13 | 45.13155 | 19.58735 | 18949 ft | 299 kts | 164° |
| 2026-04-22 19:13 | 45.11127 | 19.59471 | 18828 ft | 302 kts | 164° |
| 2026-04-22 19:14 | 45.09069 | 19.60212 | 18491 ft | 307 kts | 164° |
| 2026-04-22 19:14 | 45.06987 | 19.60960 | 18085 ft | 309 kts | 164° |
| 2026-04-22 19:14 | 45.04903 | 19.61709 | 17662 ft | 309 kts | 164° |
| 2026-04-22 19:14 | 45.02818 | 19.62457 | 17241 ft | 309 kts | 164° |
| 2026-04-22 19:15 | 45.01445 | 19.62981 | 16990 ft | 306 kts | 160° |
| 2026-04-22 19:15 | 44.99168 | 19.65168 | 16448 ft | 299 kts | 133° |
| 2026-04-22 19:15 | 44.97835 | 19.67407 | 16058 ft | 296 kts | 121° |
| 2026-04-22 19:15 | 44.96766 | 19.69885 | 15668 ft | 295 kts | 116° |
| 2026-04-22 19:16 | 44.95758 | 19.72415 | 15297 ft | 295 kts | 116° |
| 2026-04-22 19:16 | 44.94748 | 19.74905 | 14947 ft | 295 kts | 117° |
| 2026-04-22 19:16 | 44.93684 | 19.77379 | 14596 ft | 295 kts | 119° |
| 2026-04-22 19:16 | 44.92602 | 19.79835 | 14245 ft | 294 kts | 118° |
| 2026-04-22 19:17 | 44.91629 | 19.82066 | 13929 ft | 293 kts | 118° |
| 2026-04-22 19:17 | 44.90558 | 19.84520 | 13530 ft | 292 kts | 118° |
| 2026-04-22 19:17 | 44.89490 | 19.86950 | 13159 ft | 291 kts | 118° |
| 2026-04-22 19:17 | 44.88429 | 19.89375 | 12751 ft | 290 kts | 118° |
| 2026-04-22 19:18 | 44.87368 | 19.91800 | 12363 ft | 288 kts | 118° |
| 2026-04-22 19:18 | 44.86330 | 19.94165 | 11996 ft | 286 kts | 118° |
| 2026-04-22 19:18 | 44.85283 | 19.96551 | 11634 ft | 285 kts | 118° |
| 2026-04-22 19:18 | 44.84240 | 19.98926 | 11277 ft | 283 kts | 118° |
| 2026-04-22 19:19 | 44.83206 | 20.01277 | 10919 ft | 281 kts | 118° |
| 2026-04-22 19:19 | 44.82180 | 20.03614 | 10563 ft | 279 kts | 118° |
| 2026-04-22 19:19 | 44.81158 | 20.05926 | 10216 ft | 277 kts | 118° |
| 2026-04-22 19:19 | 44.80229 | 20.08040 | 9878 ft | 276 kts | 118° |
| 2026-04-22 19:20 | 44.79227 | 20.10308 | 9509 ft | 273 kts | 118° |
| 2026-04-22 19:20 | 44.78228 | 20.12575 | 9172 ft | 270 kts | 118° |
| 2026-04-22 19:20 | 44.77245 | 20.14802 | 8940 ft | 265 kts | 118° |
| 2026-04-22 19:20 | 44.76274 | 20.16988 | 8705 ft | 262 kts | 118° |
| 2026-04-22 19:21 | 44.75313 | 20.19165 | 8464 ft | 261 kts | 118° |
| 2026-04-22 19:21 | 44.74359 | 20.21333 | 8229 ft | 261 kts | 118° |
| 2026-04-22 19:21 | 44.73412 | 20.23473 | 8008 ft | 260 kts | 118° |
| 2026-04-22 19:21 | 44.72454 | 20.25631 | 7808 ft | 259 kts | 118° |
| 2026-04-22 19:22 | 44.71507 | 20.27788 | 7607 ft | 259 kts | 118° |
| 2026-04-22 19:22 | 44.70546 | 20.29945 | 7368 ft | 260 kts | 119° |
| 2026-04-22 19:22 | 44.69581 | 20.32091 | 7149 ft | 260 kts | 119° |
| 2026-04-22 19:22 | 44.68622 | 20.34243 | 6934 ft | 260 kts | 118° |
| 2026-04-22 19:23 | 44.67660 | 20.36414 | 6693 ft | 262 kts | 118° |
| 2026-04-22 19:23 | 44.66692 | 20.38584 | 6476 ft | 262 kts | 119° |
| 2026-04-22 19:23 | 44.65729 | 20.40730 | 6264 ft | 263 kts | 119° |
| 2026-04-22 19:23 | 44.64753 | 20.42919 | 5994 ft | 263 kts | 118° |
| 2026-04-22 19:24 | 44.63777 | 20.45101 | 5809 ft | 261 kts | 119° |
| 2026-04-22 19:24 | 44.62825 | 20.47247 | 5638 ft | 260 kts | 119° |
| 2026-04-22 19:24 | 44.61907 | 20.49413 | 5448 ft | 254 kts | 111° |
| 2026-04-22 19:24 | 44.61696 | 20.51792 | 5234 ft | 244 kts | 76° |
| 2026-04-22 19:25 | 44.62450 | 20.53828 | 5005 ft | 234 kts | 42° |
| 2026-04-22 19:25 | 44.63781 | 20.55054 | 4754 ft | 227 kts | 29° |
| 2026-04-22 19:25 | 44.65132 | 20.56131 | 4536 ft | 225 kts | 26° |
| 2026-04-22 19:25 | 44.66523 | 20.57134 | 4348 ft | 223 kts | 25° |
| 2026-04-22 19:26 | 44.67905 | 20.58051 | 4103 ft | 213 kts | 17° |
| 2026-04-22 19:26 | 44.69340 | 20.57995 | 3915 ft | 209 kts | 340° |
| 2026-04-22 19:26 | 44.70422 | 20.56699 | 3664 ft | 199 kts | 306° |
| 2026-04-22 19:26 | 44.71136 | 20.55099 | 3442 ft | 192 kts | 305° |
| 2026-04-22 19:27 | 44.71684 | 20.53826 | 3265 ft | 181 kts | 304° |
| 2026-04-22 19:27 | 44.72330 | 20.52339 | 3265 ft | 178 kts | 305° |
| 2026-04-22 19:27 | 44.72992 | 20.50841 | 3206 ft | 181 kts | 306° |
| 2026-04-22 19:27 | 44.73656 | 20.49343 | 3194 ft | 179 kts | 306° |
| 2026-04-22 19:28 | 44.74309 | 20.47848 | 3023 ft | 177 kts | 305° |
| 2026-04-22 19:28 | 44.74962 | 20.46433 | 2752 ft | 171 kts | 307° |
| 2026-04-22 19:28 | 44.75575 | 20.45064 | 2567 ft | 158 kts | 305° |
| 2026-04-22 19:28 | 44.76143 | 20.43761 | 2289 ft | 153 kts | 306° |
| 2026-04-22 19:29 | 44.76683 | 20.42539 | 2092 ft | 140 kts | 306° |
| 2026-04-22 19:29 | 44.77190 | 20.41409 | 1936 ft | 132 kts | 307° |
| 2026-04-22 19:29 | 44.77649 | 20.40376 | 1766 ft | 120 kts | 305° |
| 2026-04-22 19:29 | 44.78063 | 20.39394 | 1556 ft | 115 kts | 307° |
| 2026-04-22 19:30 | 44.78360 | 20.38768 | 1482 ft | 113 kts | 308° |
| 2026-04-22 19:30 | 44.78917 | 20.37568 | 1233 ft | 109 kts | 304° |
| 2026-04-22 19:30 | 44.79242 | 20.36802 | 1119 ft | 108 kts | 303° |
| 2026-04-22 19:30 | 44.79631 | 20.35893 | 972 ft | 108 kts | 302° |
| 2026-04-22 19:31 | 44.80027 | 20.34999 | 838 ft | 108 kts | 301° |
| 2026-04-22 19:31 | 44.80419 | 20.34121 | 641 ft | 104 kts | 301° |
| 2026-04-22 19:31 | 44.80807 | 20.33240 | 480 ft | 106 kts | 302° |
| 2026-04-22 19:31 | 44.81197 | 20.32363 | 355 ft | 104 kts | 302° |
| 2026-04-22 19:32 | 44.81570 | 20.31524 | 303 ft | 93 kts | 302° |
| 2026-04-22 19:32 | 44.81802 | 20.31004 | 304 ft | 49 kts | 302° |
| 2026-04-22 19:32 | 44.81956 | 20.30660 | 304 ft | 34 kts | 302° |
| 2026-04-22 19:32 | 44.82054 | 20.30437 | 302 ft | 22 kts | 302° |
| 2026-04-22 19:33 | 44.82120 | 20.30284 | 303 ft | 16 kts | 298° |
| 2026-04-22 19:33 | 44.82161 | 20.30155 | 303 ft | 14 kts | 287° |
| 2026-04-22 19:33 | 44.82169 | 20.30025 | 303 ft | 12 kts | 271° |
| 2026-04-22 19:33 | 44.82170 | 20.29898 | 304 ft | 16 kts | 270° |
| 2026-04-22 19:34 | 44.82164 | 20.29728 | 304 ft | 15 kts | 250° |
| 2026-04-22 19:34 | 44.82090 | 20.29638 | 305 ft | 14 kts | 213° |
| 2026-04-22 19:34 | 44.82014 | 20.29569 | 305 ft | 13 kts | 212° |
| 2026-04-22 19:34 | 44.81941 | 20.29504 | 305 ft | 12 kts | 212° |
| 2026-04-22 19:35 | 44.81871 | 20.29443 | 304 ft | 12 kts | 212° |
| 2026-04-22 19:35 | 44.81804 | 20.29385 | 303 ft | 11 kts | 212° |
| 2026-04-22 19:35 | 44.81764 | 20.29375 | 305 ft | 6 kts | 140° |
| 2026-04-22 19:35 | 44.81738 | 20.29430 | 303 ft | 0 kts | 122° |